Time;durP1;ratioP1;P1;durP2;ratioP2;P2;SDS_P1;SDS_P2;PMS_P1;PMS_P2;Temp;Humidity;BMP_temperature;BMP_pressure;BME280_temperature;BME280_humidity;BME280_pressure;Samples;Min_cycle;Max_cycle;Signal;HPM_P1;HPM_P2
2021/06/24 00:02:22;;;;;;;8.30;3.05;;;19.10;99.90;;;;;;1839905;76;21106;-76
2021/06/24 00:04:49;;;;;;;8.83;3.30;;;19.10;99.90;;;;;;1835960;76;21045;-76
2021/06/24 00:07:17;;;;;;;7.75;3.00;;;19.10;99.90;;;;;;1830529;77;21174;-75
2021/06/24 00:09:44;;;;;;;10.13;3.08;;;19.10;99.90;;;;;;1830418;76;21225;-76
2021/06/24 00:12:12;;;;;;;8.23;2.95;;;19.10;99.90;;;;;;1830265;77;21163;-75
2021/06/24 00:14:40;;;;;;;8.45;3.17;;;19.10;99.90;;;;;;1833192;78;21038;-75
2021/06/24 00:17:07;;;;;;;11.43;3.20;;;19.10;99.90;;;;;;1830194;78;21128;-74
2021/06/24 00:19:35;;;;;;;8.93;3.00;;;19.10;99.90;;;;;;1830676;76;21453;-75
2021/06/24 00:22:02;;;;;;;10.18;3.20;;;19.10;99.90;;;;;;1830090;76;21591;-74
2021/06/24 00:24:30;;;;;;;11.03;3.55;;;19.10;99.90;;;;;;1830182;76;21524;-75
2021/06/24 00:26:57;;;;;;;9.05;3.00;;;19.10;99.90;;;;;;1830089;76;21125;-74
2021/06/24 00:29:25;;;;;;;11.28;3.50;;;19.00;99.90;;;;;;1830927;77;21105;-74
2021/06/24 00:31:52;;;;;;;9.53;3.15;;;19.00;99.90;;;;;;1840895;76;21419;-74
2021/06/24 00:34:20;;;;;;;8.10;3.12;;;19.00;99.90;;;;;;1827482;78;21214;-75
2021/06/24 00:36:47;;;;;;;12.33;3.40;;;19.00;99.90;;;;;;1831476;76;21126;-74
2021/06/24 00:39:15;;;;;;;7.75;3.05;;;19.00;99.90;;;;;;1822429;77;21085;-75
2021/06/24 00:41:44;;;;;;;9.35;3.25;;;19.00;99.90;;;;;;1830156;78;21113;-74
2021/06/24 00:44:11;;;;;;;8.10;3.25;;;19.00;99.90;;;;;;1831063;77;21587;-76
2021/06/24 00:46:39;;;;;;;9.78;3.37;;;19.00;99.90;;;;;;1830007;76;21116;-75
2021/06/24 00:49:08;;;;;;;7.03;3.30;;;19.00;99.90;;;;;;1830512;76;21062;-76
2021/06/24 00:51:36;;;;;;;6.80;3.33;;;19.00;99.90;;;;;;1830915;76;21153;-75
2021/06/24 00:54:03;;;;;;;9.05;3.40;;;19.00;99.90;;;;;;1829977;77;21914;-75
2021/06/24 00:56:35;;;;;;;10.43;3.10;;;19.00;99.90;;;;;;1833027;77;21087;-76
2021/06/24 00:59:04;;;;;;;8.13;3.70;;;19.00;99.90;;;;;;1830042;77;21591;-76
2021/06/24 01:01:34;;;;;;;10.63;3.60;;;19.00;99.90;;;;;;1833099;76;21112;-76
2021/06/24 01:04:01;;;;;;;11.85;3.92;;;19.00;99.90;;;;;;1837416;76;21145;-76
2021/06/24 01:06:29;;;;;;;8.08;3.47;;;18.90;99.90;;;;;;1831551;77;21172;-75
2021/06/24 01:08:56;;;;;;;11.05;4.05;;;19.00;99.90;;;;;;1831750;77;22170;-75
2021/06/24 01:11:27;;;;;;;9.33;3.60;;;18.90;99.90;;;;;;1830676;77;21101;-76
2021/06/24 01:13:54;;;;;;;8.20;3.60;;;18.90;99.90;;;;;;1830437;76;21571;-75
2021/06/24 01:16:22;;;;;;;11.63;4.05;;;18.90;99.90;;;;;;1836262;76;21545;-76
2021/06/24 01:18:49;;;;;;;7.70;3.83;;;18.90;99.90;;;;;;1830048;77;21118;-75
2021/06/24 01:21:17;;;;;;;8.65;3.65;;;18.90;99.90;;;;;;1830104;77;21078;-76
2021/06/24 01:23:45;;;;;;;11.00;4.05;;;18.90;99.90;;;;;;1830316;77;22103;-75
2021/06/24 01:26:13;;;;;;;13.65;4.03;;;18.90;99.90;;;;;;1830955;78;21056;-75
2021/06/24 01:28:41;;;;;;;10.75;3.58;;;18.90;99.90;;;;;;1813702;77;21174;-76
2021/06/24 01:31:09;;;;;;;8.78;3.98;;;18.90;99.90;;;;;;1830651;77;21108;-75
2021/06/24 01:33:37;;;;;;;8.23;3.98;;;18.90;99.90;;;;;;1831356;77;21131;-76
2021/06/24 01:36:06;;;;;;;10.45;4.28;;;18.90;99.90;;;;;;1814445;77;21139;-76
2021/06/24 01:38:35;;;;;;;9.50;3.90;;;18.80;99.90;;;;;;1813784;78;21434;-75
2021/06/24 01:41:06;;;;;;;11.43;4.00;;;18.90;99.90;;;;;;1830117;77;21652;-76
2021/06/24 01:43:33;;;;;;;13.00;4.42;;;18.90;99.90;;;;;;1830137;77;21122;-75
2021/06/24 01:46:01;;;;;;;8.95;3.90;;;18.90;99.90;;;;;;1822910;76;21122;-75
2021/06/24 01:48:29;;;;;;;8.83;3.90;;;18.80;99.90;;;;;;1831208;76;21493;-76
2021/06/24 01:50:59;;;;;;;7.97;4.10;;;18.80;99.90;;;;;;1830582;76;21034;-75
2021/06/24 01:53:27;;;;;;;8.85;4.20;;;18.80;99.90;;;;;;1835173;76;21102;-75
2021/06/24 01:55:56;;;;;;;10.90;4.03;;;18.80;99.90;;;;;;1830646;78;21083;-76
2021/06/24 01:58:25;;;;;;;11.15;4.33;;;18.80;99.90;;;;;;1815909;78;21194;-76
2021/06/24 02:00:55;;;;;;;12.35;4.55;;;18.80;99.90;;;;;;1858897;76;21089;-76
2021/06/24 02:03:24;;;;;;;9.63;4.05;;;18.70;99.90;;;;;;1830863;76;21163;-76
2021/06/24 02:05:54;;;;;;;10.08;4.97;;;18.80;99.90;;;;;;1830435;77;22077;-75
2021/06/24 02:08:24;;;;;;;8.90;4.40;;;18.80;99.90;;;;;;1829754;76;21117;-75
2021/06/24 02:10:53;;;;;;;10.20;4.22;;;18.80;99.90;;;;;;1830268;76;21097;-75
2021/06/24 02:13:21;;;;;;;10.55;4.03;;;18.80;99.90;;;;;;1818358;78;21134;-76
2021/06/24 02:15:48;;;;;;;9.35;4.10;;;18.80;99.90;;;;;;1813673;77;21175;-75
2021/06/24 02:18:16;;;;;;;9.53;4.80;;;18.80;99.90;;;;;;1830801;78;21571;-75
2021/06/24 02:20:43;;;;;;;9.30;3.83;;;18.70;99.90;;;;;;1837605;77;21516;-75
2021/06/24 02:23:11;;;;;;;9.63;3.98;;;18.70;99.90;;;;;;1833309;76;21207;-75
2021/06/24 02:25:38;;;;;;;12.15;4.53;;;18.70;99.90;;;;;;1833079;77;21120;-75
2021/06/24 02:28:06;;;;;;;12.65;4.33;;;18.70;99.90;;;;;;1836327;77;21163;-75
2021/06/24 02:30:34;;;;;;;8.15;4.20;;;18.70;99.90;;;;;;1833062;77;21638;-75
2021/06/24 02:33:02;;;;;;;10.85;4.42;;;18.70;99.90;;;;;;1833438;78;21109;-75
2021/06/24 02:35:31;;;;;;;9.10;4.10;;;18.70;99.90;;;;;;1830332;76;22078;-74
2021/06/24 02:37:58;;;;;;;9.83;4.30;;;18.70;99.90;;;;;;1829830;78;21590;-74
2021/06/24 02:40:26;;;;;;;6.40;4.03;;;18.70;99.90;;;;;;1833050;78;21125;-75
2021/06/24 02:42:53;;;;;;;9.48;4.25;;;18.70;99.90;;;;;;1832936;76;21116;-76
2021/06/24 02:45:21;;;;;;;8.40;4.80;;;18.70;99.90;;;;;;1832234;77;21175;-77
2021/06/24 02:47:48;;;;;;;11.45;5.00;;;18.70;99.90;;;;;;1833138;77;22161;-75
2021/06/24 02:50:16;;;;;;;9.90;4.50;;;18.70;99.90;;;;;;1831471;78;21594;-75
2021/06/24 02:52:44;;;;;;;9.00;4.22;;;18.70;99.90;;;;;;1830690;76;21712;-76
2021/06/24 02:55:12;;;;;;;9.78;4.30;;;18.70;99.90;;;;;;1831926;76;21665;-77
2021/06/24 02:57:40;;;;;;;9.03;4.22;;;18.80;99.90;;;;;;1832331;78;21103;-76
2021/06/24 03:00:10;;;;;;;10.32;4.05;;;18.70;99.90;;;;;;1833913;76;21082;-76
2021/06/24 03:02:38;;;;;;;10.68;4.22;;;18.70;99.90;;;;;;1831868;78;21105;-76
2021/06/24 03:05:10;;;;;;;10.55;4.05;;;18.70;99.90;;;;;;1837768;76;21195;-76
2021/06/24 03:07:37;;;;;;;10.32;4.40;;;18.70;99.90;;;;;;1834086;77;21105;-76
2021/06/24 03:10:05;;;;;;;7.35;4.22;;;18.70;99.90;;;;;;1832218;77;21644;-75
2021/06/24 03:12:33;;;;;;;8.60;4.72;;;18.70;99.90;;;;;;1833505;76;21642;-77
2021/06/24 03:15:00;;;;;;;13.50;5.60;;;18.70;99.90;;;;;;1833708;77;21078;-77
2021/06/24 03:17:28;;;;;;;8.88;4.83;;;18.70;99.90;;;;;;1833579;78;21081;-77
2021/06/24 03:19:56;;;;;;;14.00;5.75;;;18.70;99.90;;;;;;1832925;76;21136;-77
2021/06/24 03:22:23;;;;;;;10.70;4.92;;;18.60;99.90;;;;;;1833852;77;21127;-77
2021/06/24 03:24:51;;;;;;;8.98;5.28;;;18.60;99.90;;;;;;1834439;76;21101;-77
2021/06/24 03:27:19;;;;;;;9.98;5.65;;;18.60;99.90;;;;;;1834791;77;21591;-77
2021/06/24 03:29:46;;;;;;;9.50;5.33;;;18.60;99.90;;;;;;1835311;76;21042;-76
2021/06/24 03:32:14;;;;;;;10.43;5.70;;;18.60;99.90;;;;;;1857351;75;21011;-77
2021/06/24 03:34:41;;;;;;;10.20;5.92;;;18.60;99.90;;;;;;1864549;77;21065;-75
2021/06/24 03:37:09;;;;;;;12.82;6.00;;;18.60;99.90;;;;;;1864894;77;21098;-75
2021/06/24 03:39:36;;;;;;;14.50;6.28;;;18.60;99.90;;;;;;1862632;75;21183;-77
2021/06/24 03:42:04;;;;;;;12.40;5.90;;;18.60;99.90;;;;;;1863649;75;21179;-76
2021/06/24 03:44:32;;;;;;;10.43;6.40;;;18.50;99.90;;;;;;1864539;76;21136;-75
2021/06/24 03:46:59;;;;;;;10.13;5.97;;;18.50;99.90;;;;;;1861581;76;21077;-75
2021/06/24 03:49:27;;;;;;;9.98;5.72;;;18.50;99.90;;;;;;1861214;77;21163;-75
2021/06/24 03:51:57;;;;;;;9.40;5.50;;;18.40;99.90;;;;;;1851640;77;21685;-75
2021/06/24 03:54:24;;;;;;;12.28;6.33;;;18.40;99.90;;;;;;1864574;76;21202;-76
2021/06/24 03:56:51;;;;;;;12.90;6.28;;;18.30;99.90;;;;;;1858052;77;21112;-75
2021/06/24 03:59:19;;;;;;;8.03;5.72;;;18.30;99.90;;;;;;1844157;78;21161;-75
2021/06/24 04:01:46;;;;;;;11.60;5.90;;;18.40;99.90;;;;;;1858816;75;21073;-76
2021/06/24 04:04:14;;;;;;;9.80;5.80;;;18.40;99.90;;;;;;1864967;76;21090;-76
2021/06/24 04:06:42;;;;;;;10.30;5.85;;;18.30;99.90;;;;;;1863647;77;21179;-76
2021/06/24 04:09:09;;;;;;;12.15;6.28;;;18.30;99.90;;;;;;1865163;77;21053;-77
2021/06/24 04:11:37;;;;;;;10.40;5.33;;;18.30;99.90;;;;;;1860303;76;21567;-77
2021/06/24 04:14:04;;;;;;;9.85;5.40;;;18.30;99.90;;;;;;1851493;77;21125;-77
2021/06/24 04:16:32;;;;;;;10.25;5.70;;;18.30;99.90;;;;;;1846560;76;21073;-76
2021/06/24 04:18:59;;;;;;;11.22;6.00;;;18.20;99.90;;;;;;1832586;76;21219;-76
2021/06/24 04:21:27;;;;;;;11.53;6.28;;;18.20;99.90;;;;;;1829992;77;21230;-75
2021/06/24 04:23:54;;;;;;;14.07;6.30;;;18.20;99.90;;;;;;1835414;76;21153;-75
2021/06/24 04:26:22;;;;;;;13.30;5.72;;;18.20;99.90;;;;;;1830010;77;21121;-76
2021/06/24 04:28:50;;;;;;;10.05;5.75;;;18.20;99.90;;;;;;1833069;77;21135;-75
2021/06/24 04:31:17;;;;;;;11.68;5.80;;;18.10;99.90;;;;;;1832040;76;21105;-76
2021/06/24 04:33:45;;;;;;;11.65;5.47;;;18.10;99.90;;;;;;1839407;76;21137;-76
2021/06/24 04:36:13;;;;;;;12.05;5.25;;;18.10;99.90;;;;;;1856459;75;21155;-75
2021/06/24 04:38:40;;;;;;;9.45;5.58;;;18.10;99.90;;;;;;1864535;76;21073;-75
2021/06/24 04:41:08;;;;;;;11.90;5.58;;;18.10;99.90;;;;;;1862761;76;21089;-75
2021/06/24 04:43:35;;;;;;;11.97;5.47;;;18.20;99.90;;;;;;1834278;77;21112;-75
2021/06/24 04:46:03;;;;;;;10.70;4.87;;;18.20;99.90;;;;;;1830417;76;21532;-75
2021/06/24 04:48:30;;;;;;;9.98;5.28;;;18.20;99.90;;;;;;1834883;77;21093;-75
2021/06/24 04:50:58;;;;;;;11.83;4.35;;;18.30;99.90;;;;;;1830376;78;21082;-76
2021/06/24 04:53:25;;;;;;;9.60;5.25;;;18.30;99.90;;;;;;1831026;77;21959;-75
2021/06/24 04:55:53;;;;;;;9.00;4.42;;;18.30;99.90;;;;;;1832320;78;21132;-76
2021/06/24 04:58:22;;;;;;;14.87;4.83;;;18.30;99.90;;;;;;1830201;76;21171;-76
2021/06/24 05:00:49;;;;;;;11.75;4.30;;;18.30;99.90;;;;;;1834432;78;21175;-76
2021/06/24 05:03:17;;;;;;;7.87;4.30;;;18.30;99.90;;;;;;1837059;76;21090;-76
2021/06/24 05:05:47;;;;;;;11.00;4.17;;;18.30;99.90;;;;;;1833697;77;21120;-76
2021/06/24 05:08:21;;;;;;;9.05;4.35;;;18.40;99.90;;;;;;1853959;75;21174;-78
2021/06/24 05:10:44;;;;;;;11.05;4.60;;;18.40;99.90;;;;;;1829229;78;21469;-74
2021/06/24 05:13:12;;;;;;;8.45;4.33;;;18.40;99.90;;;;;;1831134;76;21210;-74
2021/06/24 05:15:43;;;;;;;7.37;3.83;;;18.40;99.90;;;;;;1834786;76;21502;-75
2021/06/24 05:18:13;;;;;;;12.10;4.87;;;18.40;99.90;;;;;;1844507;76;21205;-75
2021/06/24 05:20:42;;;;;;;8.88;4.00;;;18.50;99.90;;;;;;1813247;78;21205;-76
2021/06/24 05:23:29;;;;;;;12.30;4.62;;;18.40;99.90;;;;;;1814348;75;21170;-77
2021/06/24 05:25:57;;;;;;;7.47;3.80;;;18.50;99.90;;;;;;1823896;77;21082;-74
2021/06/24 05:28:24;;;;;;;8.55;3.75;;;18.40;99.90;;;;;;1826119;76;21098;-73
2021/06/24 05:30:52;;;;;;;12.37;4.70;;;18.50;99.90;;;;;;1832008;76;21075;-73
2021/06/24 05:33:19;;;;;;;13.43;4.28;;;18.50;99.90;;;;;;1842249;75;21527;-73
2021/06/24 05:35:48;;;;;;;10.82;4.87;;;18.50;99.90;;;;;;1848754;77;21233;-71
2021/06/24 05:38:16;;;;;;;13.83;4.58;;;18.50;99.90;;;;;;1884568;75;21085;-72
2021/06/24 05:40:45;;;;;;;14.50;4.35;;;18.60;99.90;;;;;;1860438;75;21090;-71
2021/06/24 05:43:14;;;;;;;15.90;3.87;;;18.60;99.90;;;;;;1863777;76;21195;-74
2021/06/24 05:45:41;;;;;;;9.33;3.98;;;18.60;99.90;;;;;;1865006;76;21058;-75
2021/06/24 05:48:08;;;;;;;7.12;4.08;;;18.70;99.90;;;;;;1878627;75;21094;-74
2021/06/24 05:50:55;;;;;;;8.08;4.00;;;18.70;99.90;;;;;;1855357;75;21167;-75
2021/06/24 05:53:23;;;;;;;8.75;4.62;;;18.70;99.90;;;;;;1863130;77;21458;-75
2021/06/24 05:55:50;;;;;;;9.85;4.67;;;18.70;99.90;;;;;;1837248;77;21208;-73
2021/06/24 05:58:23;;;;;;;8.90;4.58;;;18.70;99.90;;;;;;1841161;77;21117;-74
2021/06/24 06:00:53;;;;;;;9.83;4.65;;;18.70;99.90;;;;;;1836299;77;21121;-74
2021/06/24 06:03:22;;;;;;;12.18;4.80;;;18.70;99.90;;;;;;1820195;77;21114;-74
2021/06/24 06:05:50;;;;;;;10.55;4.85;;;18.70;99.90;;;;;;1827975;77;21191;-73
2021/06/24 06:08:19;;;;;;;10.32;4.42;;;18.80;99.90;;;;;;1818178;77;21269;-74
2021/06/24 06:10:47;;;;;;;9.25;4.58;;;18.80;99.90;;;;;;1818136;77;21101;-73
2021/06/24 06:13:15;;;;;;;14.35;5.08;;;18.80;99.90;;;;;;1817690;77;21126;-74
2021/06/24 06:15:48;;;;;;;10.43;4.53;;;18.80;99.90;;;;;;1835874;77;21156;-77
2021/06/24 06:18:26;;;;;;;8.33;4.55;;;18.90;99.90;;;;;;1840634;76;21327;-75
2021/06/24 06:20:57;;;;;;;8.48;4.33;;;18.90;99.90;;;;;;1780883;79;21125;-74
2021/06/24 06:23:27;;;;;;;10.35;4.20;;;18.90;99.90;;;;;;1826415;77;21169;-78
2021/06/24 06:25:55;;;;;;;10.50;4.85;;;19.00;99.90;;;;;;1831861;77;21051;-77
2021/06/24 06:28:23;;;;;;;13.08;5.30;;;19.00;99.90;;;;;;1816999;79;21039;-77
2021/06/24 06:30:53;;;;;;;8.00;4.42;;;19.10;99.90;;;;;;1820036;77;21119;-75
2021/06/24 06:33:21;;;;;;;9.23;4.78;;;19.10;99.90;;;;;;1831523;77;21071;-77
2021/06/24 06:36:08;;;;;;;7.35;4.35;;;19.10;99.90;;;;;;1832938;77;21125;-74
2021/06/24 06:38:36;;;;;;;8.60;4.90;;;19.20;99.90;;;;;;1940434;74;21096;-74
2021/06/24 06:41:03;;;;;;;7.67;4.08;;;19.20;99.90;;;;;;1929361;74;21459;-72
2021/06/24 06:43:31;;;;;;;12.03;4.78;;;19.20;99.90;;;;;;1938965;74;21064;-73
2021/06/24 06:45:58;;;;;;;9.53;4.67;;;19.30;99.90;;;;;;1880452;75;21159;-74
2021/06/24 06:48:26;;;;;;;14.38;4.53;;;19.30;99.90;;;;;;1924427;74;21633;-73
2021/06/24 06:50:53;;;;;;;6.70;4.03;;;19.30;99.90;;;;;;1919117;74;21174;-74
2021/06/24 06:53:22;;;;;;;6.10;3.98;;;19.30;99.90;;;;;;1926105;74;21092;-74
2021/06/24 06:55:50;;;;;;;9.68;4.30;;;19.30;99.90;;;;;;1919937;74;21170;-74
2021/06/24 06:58:17;;;;;;;8.95;4.08;;;19.30;99.90;;;;;;1917121;74;21558;-75
2021/06/24 07:00:45;;;;;;;10.08;3.80;;;19.40;99.90;;;;;;1916153;74;21229;-75
2021/06/24 07:03:14;;;;;;;8.70;4.15;;;19.40;99.90;;;;;;1920066;74;21080;-74
2021/06/24 07:05:42;;;;;;;9.55;3.95;;;19.50;99.90;;;;;;1930837;74;21186;-75
2021/06/24 07:08:09;;;;;;;9.40;4.20;;;19.50;99.90;;;;;;1922646;74;21088;-76
2021/06/24 07:10:37;;;;;;;5.85;4.03;;;19.60;99.90;;;;;;1929862;74;21104;-76
2021/06/24 07:13:04;;;;;;;6.97;4.00;;;19.60;99.90;;;;;;1926408;74;21099;-73
2021/06/24 07:15:32;;;;;;;9.08;3.72;;;19.60;99.90;;;;;;1911145;74;21081;-74
2021/06/24 07:17:59;;;;;;;7.87;2.90;;;19.60;99.90;;;;;;1908157;74;21084;-74
2021/06/24 07:20:27;;;;;;;6.45;3.20;;;19.70;99.90;;;;;;1905180;74;21562;-74
2021/06/24 07:22:55;;;;;;;9.30;3.50;;;19.80;99.90;;;;;;1902560;74;21124;-73
2021/06/24 07:25:22;;;;;;;7.35;3.70;;;19.90;99.90;;;;;;1921697;74;21170;-74
2021/06/24 07:27:51;;;;;;;7.95;3.50;;;19.90;99.90;;;;;;1918386;74;21084;-73
2021/06/24 07:30:19;;;;;;;7.58;3.35;;;19.90;99.90;;;;;;1889530;75;21190;-75
2021/06/24 07:32:47;;;;;;;10.75;3.70;;;20.00;99.90;;;;;;1917454;74;21100;-76
2021/06/24 07:35:15;;;;;;;9.40;3.42;;;20.00;99.90;;;;;;1911970;74;21123;-75
2021/06/24 07:37:44;;;;;;;9.65;3.22;;;20.10;99.90;;;;;;1921047;74;21214;-75
2021/06/24 07:40:12;;;;;;;10.60;3.20;;;20.10;99.90;;;;;;1919457;74;21723;-75
2021/06/24 07:42:40;;;;;;;8.53;3.10;;;20.20;99.90;;;;;;1914577;74;21131;-73
2021/06/24 07:45:08;;;;;;;8.75;3.40;;;20.30;99.90;;;;;;1917625;74;21073;-73
2021/06/24 07:47:35;;;;;;;9.23;3.47;;;20.30;99.90;;;;;;1921289;74;21013;-73
2021/06/24 07:50:04;;;;;;;6.35;3.30;;;20.40;99.90;;;;;;1933334;74;21154;-73
2021/06/24 07:52:32;;;;;;;7.97;3.10;;;20.50;99.90;;;;;;1919660;74;21617;-73
2021/06/24 07:54:59;;;;;;;7.90;3.20;;;20.50;99.90;;;;;;1907214;74;21186;-73
2021/06/24 07:57:28;;;;;;;7.30;3.10;;;20.60;99.90;;;;;;1906291;74;21163;-72
2021/06/24 07:59:57;;;;;;;9.08;3.30;;;20.60;99.90;;;;;;1912836;74;21146;-73
2021/06/24 08:02:25;;;;;;;9.65;3.02;;;20.70;99.90;;;;;;1911948;74;21413;-72
2021/06/24 08:04:52;;;;;;;8.98;3.85;;;20.80;99.90;;;;;;1911609;74;21088;-72
2021/06/24 08:07:20;;;;;;;8.48;3.47;;;20.90;99.90;;;;;;1919309;74;21530;-73
2021/06/24 08:09:47;;;;;;;10.58;4.15;;;20.80;98.90;;;;;;1918304;74;21057;-73
2021/06/24 08:12:15;;;;;;;7.20;3.27;;;20.80;99.60;;;;;;1904447;74;21147;-73
2021/06/24 08:14:42;;;;;;;8.30;3.02;;;20.80;99.40;;;;;;1902963;74;21637;-72
2021/06/24 08:17:10;;;;;;;10.58;3.17;;;20.70;99.90;;;;;;1914408;74;21092;-75
2021/06/24 08:19:37;;;;;;;6.28;3.00;;;20.70;99.90;;;;;;1908762;74;21096;-75
2021/06/24 08:22:05;;;;;;;8.93;3.75;;;20.70;99.90;;;;;;1916397;74;21157;-75
2021/06/24 08:24:32;;;;;;;8.18;3.83;;;20.80;99.90;;;;;;1912611;74;21155;-74
2021/06/24 08:27:00;;;;;;;7.53;3.67;;;20.80;99.90;;;;;;1908274;74;21165;-74
2021/06/24 08:29:27;;;;;;;14.28;4.40;;;20.90;99.90;;;;;;1904996;74;21085;-75
2021/06/24 08:31:55;;;;;;;11.57;3.90;;;20.90;99.90;;;;;;1908067;74;21108;-73
2021/06/24 08:34:22;;;;;;;7.33;3.60;;;20.90;99.90;;;;;;1904605;74;21585;-73
2021/06/24 08:36:50;;;;;;;11.50;3.80;;;21.00;99.90;;;;;;1905432;74;21079;-73
2021/06/24 08:39:18;;;;;;;8.48;3.70;;;21.00;99.90;;;;;;1911772;74;21080;-73
2021/06/24 08:41:51;;;;;;;12.05;3.90;;;21.10;99.90;;;;;;1909048;74;21194;-73
2021/06/24 08:44:19;;;;;;;8.68;3.40;;;21.10;99.90;;;;;;1910822;74;21234;-76
2021/06/24 08:46:51;;;;;;;7.58;4.05;;;21.10;99.90;;;;;;1915464;74;22132;-76
2021/06/24 08:49:20;;;;;;;7.75;3.62;;;21.10;99.90;;;;;;1904165;74;21124;-76
2021/06/24 08:51:48;;;;;;;6.10;3.15;;;21.10;99.90;;;;;;1911631;74;21143;-76
2021/06/24 08:54:15;;;;;;;8.90;3.85;;;21.10;99.90;;;;;;1889775;75;21168;-76
2021/06/24 08:56:43;;;;;;;10.15;4.25;;;21.10;99.90;;;;;;1920377;74;21633;-76
2021/06/24 08:59:10;;;;;;;6.50;3.72;;;21.10;99.30;;;;;;1933774;74;21033;-76
2021/06/24 09:01:49;;;;;;;9.38;5.00;;;21.20;98.90;;;;;;1911833;74;21107;-76
2021/06/24 09:04:18;;;;;;;8.50;4.15;;;21.20;99.90;;;;;;1918753;74;21148;-76
2021/06/24 09:06:46;;;;;;;7.22;3.65;;;21.10;99.30;;;;;;1901637;74;21174;-75
2021/06/24 09:09:35;;;;;;;8.30;4.05;;;21.20;99.50;;;;;;1917829;74;21162;-76
2021/06/24 09:12:11;;;;;;;7.35;4.12;;;21.30;99.90;;;;;;1903147;74;21557;-76
2021/06/24 09:14:44;;;;;;;10.28;4.78;;;21.30;99.90;;;;;;1903813;74;21530;-75
2021/06/24 09:17:14;;;;;;;13.60;4.35;;;21.40;99.90;;;;;;1915023;74;21367;-75
2021/06/24 09:19:43;;;;;;;8.75;4.72;;;21.40;99.90;;;;;;1871478;75;21367;-72
2021/06/24 09:22:13;;;;;;;8.33;4.17;;;21.40;99.50;;;;;;1881048;75;21089;-76
2021/06/24 09:24:43;;;;;;;9.55;4.83;;;21.40;99.20;;;;;;1907250;74;21127;-74
2021/06/24 09:27:25;;;;;;;10.10;4.15;;;21.50;99.90;;;;;;1911190;74;21101;-73
2021/06/24 09:30:10;;;;;;;13.00;4.12;;;21.50;99.70;;;;;;1913401;74;21122;-73
2021/06/24 09:32:42;;;;;;;10.58;4.00;;;21.60;99.20;;;;;;1897066;75;21759;-73
2021/06/24 09:35:12;;;;;;;9.53;4.03;;;21.60;99.80;;;;;;1912938;74;21194;-73
2021/06/24 09:38:02;;;;;;;9.68;4.60;;;21.80;99.90;;;;;;1930639;74;21146;-74
2021/06/24 09:40:38;;;;;;;11.30;4.65;;;21.90;99.10;;;;;;1901997;74;21206;-76
2021/06/24 09:43:06;;;;;;;7.55;4.03;;;22.00;99.60;;;;;;1877465;75;21648;-74
2021/06/24 09:45:34;;;;;;;15.48;5.00;;;22.00;99.70;;;;;;1924689;74;21174;-75
2021/06/24 09:48:10;;;;;;;10.28;4.92;;;22.20;99.50;;;;;;1901948;74;21085;-76
2021/06/24 09:50:39;;;;;;;12.25;5.12;;;22.20;98.80;;;;;;1901448;75;21088;-74
2021/06/24 09:53:14;;;;;;;12.60;5.28;;;22.20;99.40;;;;;;1903437;74;21126;-76
2021/06/24 09:55:42;;;;;;;12.13;5.17;;;22.20;98.90;;;;;;1902705;75;21173;-75
2021/06/24 09:58:14;;;;;;;11.43;5.05;;;22.20;98.40;;;;;;1912983;74;21464;-73
2021/06/24 10:00:50;;;;;;;12.15;5.30;;;22.20;98.70;;;;;;1909851;74;21810;-73
2021/06/24 10:03:18;;;;;;;16.95;5.12;;;22.20;98.60;;;;;;1909412;74;21088;-73
2021/06/24 10:05:48;;;;;;;12.43;5.60;;;22.20;98.50;;;;;;1902402;74;21111;-74
2021/06/24 10:08:16;;;;;;;14.10;5.83;;;22.30;98.10;;;;;;1921169;74;21672;-74
2021/06/24 10:10:45;;;;;;;13.85;6.65;;;22.40;98.40;;;;;;1932107;74;21350;-73
2021/06/24 10:13:12;;;;;;;10.75;6.62;;;22.40;99.20;;;;;;1914147;74;21169;-73
2021/06/24 10:15:41;;;;;;;11.93;6.22;;;22.50;99.90;;;;;;1900936;75;21151;-73
2021/06/24 10:18:08;;;;;;;16.67;6.40;;;22.70;99.90;;;;;;1906726;74;21177;-72
2021/06/24 10:20:36;;;;;;;12.40;6.25;;;22.70;98.50;;;;;;1910987;74;21126;-72
2021/06/24 10:23:09;;;;;;;12.23;6.17;;;22.70;98.20;;;;;;1907821;74;21142;-73
2021/06/24 10:25:39;;;;;;;14.50;6.33;;;22.70;98.00;;;;;;1912126;74;21112;-73
2021/06/24 10:28:07;;;;;;;12.63;6.95;;;22.60;97.90;;;;;;1920627;74;21068;-73
2021/06/24 10:30:40;;;;;;;11.65;6.67;;;22.60;97.90;;;;;;1920005;74;21659;-72
2021/06/24 10:33:11;;;;;;;16.12;7.50;;;22.60;98.70;;;;;;1903836;74;21064;-73
2021/06/24 10:35:42;;;;;;;12.15;7.22;;;22.60;98.60;;;;;;1911337;74;21112;-74
2021/06/24 10:38:12;;;;;;;13.90;7.40;;;22.50;98.00;;;;;;1915484;74;21111;-74
2021/06/24 10:40:42;;;;;;;13.15;6.72;;;22.60;98.20;;;;;;1906192;74;21115;-73
2021/06/24 10:43:12;;;;;;;10.40;6.87;;;22.60;98.60;;;;;;1907752;74;21088;-73
2021/06/24 10:45:41;;;;;;;15.25;6.92;;;22.60;97.90;;;;;;1916318;74;21068;-73
2021/06/24 10:48:31;;;;;;;13.55;6.85;;;22.70;97.90;;;;;;1925180;74;21123;-73
2021/06/24 10:51:04;;;;;;;9.33;6.90;;;22.70;98.10;;;;;;1907565;74;21108;-74
2021/06/24 10:53:37;;;;;;;17.95;7.50;;;22.70;97.60;;;;;;1930548;74;21143;-75
2021/06/24 10:56:22;;;;;;;11.18;7.58;;;22.70;97.90;;;;;;1901173;74;21069;-73
2021/06/24 10:58:50;;;;;;;13.62;7.17;;;22.70;98.10;;;;;;1898511;74;21178;-73
2021/06/24 11:01:39;;;;;;;12.43;6.80;;;22.70;98.00;;;;;;1915593;74;21108;-76
2021/06/24 11:04:07;;;;;;;10.15;6.92;;;22.80;99.10;;;;;;1927732;74;21577;-74
2021/06/24 11:06:38;;;;;;;13.68;7.50;;;22.80;98.30;;;;;;1929384;74;21142;-76
2021/06/24 11:09:14;;;;;;;12.75;8.03;;;22.80;98.00;;;;;;1906727;74;21647;-75
2021/06/24 11:11:44;;;;;;;12.70;6.20;;;22.80;98.60;;;;;;1904991;74;22096;-75
2021/06/24 11:14:19;;;;;;;11.65;5.67;;;22.80;97.70;;;;;;1901931;74;21640;-75
2021/06/24 11:16:47;;;;;;;10.65;5.42;;;22.80;98.20;;;;;;1904678;74;21104;-75
2021/06/24 11:19:16;;;;;;;12.60;5.08;;;22.70;97.60;;;;;;1871838;75;21170;-73
2021/06/24 11:21:49;;;;;;;14.07;6.08;;;22.70;98.20;;;;;;1904075;74;21136;-73
2021/06/24 11:24:20;;;;;;;10.78;5.78;;;22.70;98.00;;;;;;1916554;72;21835;-75
2021/06/24 11:26:50;;;;;;;10.55;6.20;;;22.70;98.40;;;;;;1971037;71;21089;-75
2021/06/24 11:29:29;;;;;;;13.40;6.50;;;22.70;98.70;;;;;;1959525;71;21578;-74
2021/06/24 11:32:09;;;;;;;9.85;6.12;;;22.70;98.80;;;;;;1976944;72;21651;-75
2021/06/24 11:37:15;;;;;;;15.32;7.08;;;22.70;99.10;;;;;;1931960;73;21107;-74
2021/06/24 11:39:46;;;;;;;13.55;7.15;;;22.80;98.70;;;;;;1938495;73;21113;-74
2021/06/24 11:42:15;;;;;;;12.13;8.00;;;22.90;98.60;;;;;;1932053;73;21147;-74
2021/06/24 11:44:46;;;;;;;13.05;7.70;;;22.90;97.40;;;;;;1932513;72;21135;-74
2021/06/24 11:47:18;;;;;;;13.05;7.70;;;22.90;97.30;;;;;;1941863;72;21089;-74
2021/06/24 12:00:27;;;;;;;11.12;7.65;;;22.90;97.90;;;;;;1945473;72;21080;-74
2021/06/24 12:04:30;;;;;;;9.43;6.80;;;23.20;98.40;;;;;;1938267;72;21206;-76
2021/06/24 12:07:10;;;;;;;12.37;6.40;;;23.30;98.60;;;;;;1943363;72;21177;-76
2021/06/24 12:09:46;;;;;;;11.73;5.70;;;23.30;97.60;;;;;;1933866;73;21029;-72
2021/06/24 12:12:22;;;;;;;8.73;5.58;;;23.30;98.60;;;;;;1941740;73;21539;-71
2021/06/24 12:14:52;;;;;;;11.55;5.72;;;23.30;97.90;;;;;;1934599;73;21907;-72
2021/06/24 12:17:29;;;;;;;12.28;6.35;;;23.30;97.50;;;;;;1940159;73;21052;-76
2021/06/24 12:20:05;;;;;;;6.90;6.00;;;23.40;97.50;;;;;;1936135;73;21077;-76
2021/06/24 12:22:40;;;;;;;11.22;7.10;;;23.50;98.20;;;;;;1933220;73;21177;-76
2021/06/24 12:25:14;;;;;;;9.13;6.50;;;23.50;98.20;;;;;;1938333;73;21187;-76
2021/06/24 12:27:45;;;;;;;15.48;8.23;;;23.50;97.90;;;;;;1938137;73;21036;-76
2021/06/24 12:30:19;;;;;;;10.63;7.10;;;23.60;98.10;;;;;;1935823;73;21562;-76
2021/06/24 12:32:49;;;;;;;12.07;6.37;;;23.60;97.10;;;;;;1935322;72;21511;-75
2021/06/24 12:35:32;;;;;;;10.48;6.03;;;23.50;97.70;;;;;;1906892;74;21258;-77
2021/06/24 12:38:08;;;;;;;11.48;6.35;;;23.40;96.40;;;;;;1946024;72;21606;-75
2021/06/24 12:40:39;;;;;;;8.53;6.00;;;23.40;97.00;;;;;;1905311;74;21573;-79
2021/06/24 12:43:08;;;;;;;10.80;5.90;;;23.40;97.40;;;;;;1899002;74;21102;-75
2021/06/24 12:45:39;;;;;;;9.00;6.80;;;23.40;97.70;;;;;;1896235;74;21152;-76
2021/06/24 12:48:07;;;;;;;9.53;6.78;;;23.40;98.50;;;;;;1897364;74;21144;-76
2021/06/24 12:50:36;;;;;;;13.30;7.22;;;23.50;98.70;;;;;;1906396;74;21053;-75
2021/06/24 12:53:09;;;;;;;11.43;6.85;;;23.50;98.30;;;;;;1913801;74;21563;-75
2021/06/24 12:55:52;;;;;;;9.80;7.17;;;23.60;98.40;;;;;;1899698;74;21163;-72
2021/06/24 12:58:25;;;;;;;13.00;7.50;;;23.60;98.00;;;;;;1897857;74;21184;-72
2021/06/24 13:01:14;;;;;;;10.88;7.15;;;23.60;97.80;;;;;;1897246;75;21112;-71
2021/06/24 13:03:48;;;;;;;11.63;8.08;;;23.60;97.90;;;;;;1897400;74;21297;-71
2021/06/24 13:06:24;;;;;;;12.88;8.80;;;23.60;99.10;;;;;;1898967;75;21105;-76
2021/06/24 13:09:03;;;;;;;13.13;8.98;;;23.60;98.00;;;;;;1900263;74;21108;-74